Data for 10/11/2007

Time Sea-Level Adjusted Pressure Absolute Pressure Temperature Relative Humidity Dew Point   
(mb) (inHg) (mb) (inHg) (C) (F) (%) (C) (F)
00:05 1015 29.97 845 24.95 10 49.9 65 3.8 38.8
00:10 1015 29.97 845 24.95 9.5 49.1 68 4 39.2
00:15 1016 30 845 24.95 9.2 48.6 70 4.1 39.3
00:20 1016 30 845 24.95 9.2 48.5 68 3.7 38.6
00:25 1016 30 845 24.95 9.2 48.6 66 3.3 37.9
00:30 1016 30 845 24.95 9.2 48.6 68 3.6 38.5
00:35 1016 30 845 24.95 9 48.2 69 3.6 38.5
00:40 1016 30 845 24.95 8.8 47.9 69 3.5 38.2
00:45 1016 30 846 24.98 8.8 47.8 69 3.4 38.1
00:50 1017 30.03 846 24.98 8.8 47.9 59 1.2 34.2
00:55 1017 30.03 846 24.98 9 48.2 66 3 37.3
01:00 1017 30.03 846 24.98 8.5 47.3 72 3.7 38.7
01:05 1017 30.03 846 24.98 8 46.3 74 3.7 38.7
01:10 1017 30.03 846 24.98 7.7 45.9 76 3.8 38.9
01:15 1017 30.03 847 25.01 7.6 45.6 77 3.7 38.7
01:20 1017 30.03 847 25.01 7.5 45.4 75 3.4 38.1
01:25 1017 30.03 847 25.01 7.4 45.3 69 2.2 35.9
01:30 1018 30.06 847 25.01 7.5 45.4 67 1.9 35.3
01:35 1018 30.06 847 25.01 7.4 45.3 73 2.9 37.3
01:40 1018 30.06 847 25.01 7.2 45 70 2.1 35.8
01:45 1018 30.06 847 25.01 7.2 44.9 72 2.4 36.3
01:50 1018 30.06 847 25.01 7 44.7 75 2.9 37.3
01:55 1018 30.06 847 25.01 6.9 44.5 79 3.5 38.3
02:00 1018 30.06 847 25.01 6.7 44 86 4.4 39.9
02:05 1018 30.06 847 25.01 6.3 43.4 87 4.3 39.7
02:10 1018 30.06 847 25.01 6.2 43.2 87 4.2 39.5
02:15 1018 30.06 847 25.01 6 42.8 87 4 39.1
02:20 1018 30.06 848 25.04 6.1 42.9 85 3.8 38.8
02:25 1018 30.06 848 25.04 6.1 43 85 3.7 38.6
02:30 1018 30.06 848 25.04 6.1 43 81 3.1 37.7
02:35 1018 30.06 848 25.04 6.3 43.4 81 3.3 37.9
02:40 1018 30.06 848 25.04 6.5 43.7 80 3.3 37.9
02:45 1019 30.09 848 25.04 6.7 44 79 3.2 37.8
02:50 1019 30.09 848 25.04 6.7 44.1 78 3.1 37.6
02:55 1019 30.09 848 25.04 6.7 44 80 3.5 38.2
03:00 1019 30.09 848 25.04 6.5 43.6 84 4 39.1
03:05 1019 30.09 848 25.04 6.4 43.5 85 4.1 39.4
03:10 1019 30.09 848 25.04 6.2 43.2 86 4.1 39.4
03:15 1019 30.09 848 25.04 6.1 43 87 4.1 39.4
03:20 1019 30.09 848 25.04 5.8 42.4 89 4 39.2
03:25 1019 30.09 848 25.04 5.7 42.2 88 3.8 38.8
03:30 1019 30.09 848 25.04 5.7 42.3 88 3.9 39.1
03:35 1019 30.09 848 25.04 5.7 42.2 88 3.9 39
03:40 1019 30.09 848 25.04 5.7 42.3 87 3.8 38.9
03:45 1019 30.09 848 25.04 5.8 42.4 86 3.6 38.5
03:50 1019 30.09 848 25.04 6 42.8 84 3.5 38.4
03:55 1019 30.09 848 25.04 6 42.9 84 3.6 38.4
04:00 1019 30.09 848 25.04 5.9 42.6 84 3.5 38.2
04:05 1019 30.09 848 25.04 5.8 42.5 85 3.5 38.2
04:10 1019 30.09 848 25.04 5.8 42.5 84 3.3 38
04:15 1019 30.09 848 25.04 5.8 42.5 83 3.2 37.7
04:20 1019 30.09 848 25.04 5.9 42.6 82 3.1 37.6
04:25 1019 30.09 848 25.04 6 42.8 83 3.3 37.9
04:30 1019 30.09 848 25.04 6 42.7 83 3.2 37.8
04:35 1019 30.09 848 25.04 6.1 42.9 81 3.1 37.5
04:40 1019 30.09 848 25.04 6.1 43 82 3.3 37.9
04:45 1019 30.09 848 25.04 5.9 42.6 83 3.3 37.9
04:50 1019 30.09 848 25.04 5.8 42.4 83 3.1 37.7
04:55 1019 30.09 848 25.04 5.8 42.4 84 3.3 37.9
05:00 1019 30.09 848 25.04 5.7 42.2 84 3.2 37.8
05:05 1019 30.09 848 25.04 5.7 42.3 84 3.2 37.7
05:10 1019 30.09 848 25.04 5.8 42.5 83 3.1 37.7
05:15 1019 30.09 848 25.04 5.9 42.6 84 3.4 38.1
05:20 1019 30.09 848 25.04 5.9 42.6 84 3.4 38.1
05:25 1019 30.09 849 25.07 5.8 42.4 85 3.4 38.1
05:30 1019 30.09 849 25.07 5.1 41.2 86 3 37.3
05:35 1019 30.09 849 25.07 5.1 41.2 85 2.7 36.9
05:40 1020 30.12 849 25.07 5.2 41.4 85 2.9 37.2
05:45 1020 30.12 849 25.07 5.1 41.2 84 2.7 36.8
05:50 1020 30.12 849 25.07 5.2 41.4 84 2.7 36.8
05:55 1020 30.12 849 25.07 5.4 41.7 83 2.7 36.9
06:00 1020 30.12 849 25.07 5.2 41.4 84 2.7 36.9
06:05 1020 30.12 849 25.07 5.1 41.2 84 2.7 36.9
06:10 1020 30.12 849 25.07 5.2 41.3 83 2.5 36.5
06:15 1020 30.12 849 25.07 5.1 41.2 83 2.5 36.5
06:20 1020 30.12 849 25.07 5.2 41.3 82 2.4 36.3
06:25 1020 30.12 849 25.07 5.3 41.6 81 2.3 36.2
06:30 1020 30.12 849 25.07 5.5 42 80 2.3 36.2
06:35 1020 30.12 849 25.07 5.7 42.3 79 2.4 36.3
06:40 1020 30.12 849 25.07 5.8 42.4 79 2.4 36.3
06:45 1020 30.12 849 25.07 5.4 41.8 81 2.4 36.4
06:50 1020 30.12 849 25.07 5 41 81 2 35.6
06:55 1020 30.12 849 25.07 5 40.9 80 1.8 35.2
07:00 1020 30.12 849 25.07 5 41.1 80 1.9 35.5
07:05 1020 30.12 849 25.07 5 40.9 80 1.9 35.4
07:10 1020 30.12 849 25.07 4.8 40.7 82 1.9 35.5
07:15 1020 30.12 849 25.07 4.6 40.3 83 2 35.7
07:20 1020 30.12 849 25.07 4.7 40.4 82 1.9 35.4
07:25 1020 30.12 849 25.07 4.6 40.3 83 2.1 35.7
07:30 1020 30.12 849 25.07 4.7 40.4 82 1.9 35.5
07:35 1020 30.12 849 25.07 4.6 40.2 85 2.3 36.1
07:40 1020 30.12 849 25.07 4.3 39.7 86 2.2 35.9
07:45 1020 30.12 849 25.07 4.1 39.3 87 2.1 35.7
07:50 1020 30.12 849 25.07 3.9 39.1 86 1.9 35.3
07:55 1020 30.12 849 25.07 3.9 38.9 86 1.7 35
08:00 1020 30.12 849 25.07 3.9 39 84 1.5 34.7
08:05 1020 30.12 849 25.07 4 39.2 85 1.6 34.9
08:10 1020 30.12 849 25.07 4.2 39.5 80 1.1 34
08:15 1020 30.12 849 25.07 4.5 40 77 0.8 33.4
08:20 1020 30.12 850 25.1 4.3 39.7 78 0.7 33.3
08:25 1020 30.12 850 25.1 4.5 40.1 76 0.6 33.1
08:30 1021 30.15 850 25.1 4.8 40.6 74 0.5 33
08:35 1021 30.15 850 25.1 5.1 41.3 72 0.5 32.8
08:40 1021 30.15 850 25.1 5.8 42.4 69 0.6 33
08:45 1021 30.15 850 25.1 6.2 43.2 68 0.8 33.4
08:50 1021 30.15 850 25.1 6.5 43.6 67 0.8 33.4
08:55 1021 30.15 850 25.1 7 44.6 66 1.2 34.1
09:00 1021 30.15 850 25.1 7 44.6 66 1.1 34
09:05 1021 30.15 850 25.1 6.9 44.5 68 1.4 34.5
09:10 1021 30.15 850 25.1 7.2 45 66 1.2 34.2
09:15 1021 30.15 850 25.1 7.5 45.4 65 1.4 34.5
09:20 1021 30.15 850 25.1 8 46.3 64 1.6 34.9
09:25 1021 30.15 850 25.1 8.2 46.7 66 2.2 36
09:30 1021 30.15 850 25.1 8.8 47.8 61 1.8 35.3
09:35 1021 30.15 850 25.1 9.6 49.3 58 1.8 35.3
09:40 1021 30.15 850 25.1 10 50 59 2.3 36.1
09:45 1021 30.15 850 25.1 9.6 49.4 61 2.4 36.4
09:50 1021 30.15 850 25.1 9.6 49.3 61 2.5 36.5
09:55 1021 30.15 850 25.1 9.7 49.5 59 2 35.7
10:00 1021 30.15 850 25.1 9.3 48.7 64 2.8 37.1
10:05 1021 30.15 850 25.1 8.5 47.3 67 2.8 37
10:10 1021 30.15 850 25.1 9.2 48.5 63 2.5 36.4
10:15 1021 30.15 850 25.1 9.3 48.7 62 2.4 36.3
10:20 1021 30.15 850 25.1 8.5 47.3 66 2.6 36.7
10:25 1021 30.15 850 25.1 8.4 47 64 1.9 35.4
10:30 1021 30.15 850 25.1 8.7 47.6 65 2.4 36.3
10:35 1021 30.15 850 25.1 8.5 47.3 64 2.1 35.8
10:40 1021 30.15 850 25.1 9 48.2 63 2.3 36.1
10:45 1021 30.15 850 25.1 9.2 48.5 63 2.6 36.6
10:50 1021 30.15 850 25.1 9.8 49.6 58 2 35.5
10:55 1021 30.15 850 25.1 10.1 50.1 60 2.7 36.8
11:00 1021 30.15 850 25.1 9.8 49.6 59 2.2 35.9
11:05 1021 30.15 850 25.1 9.2 48.6 57 1.2 34.2
11:10 1021 30.15 850 25.1 9.3 48.8 56 1 33.7
11:15 1021 30.15 850 25.1 9.9 49.9 53 0.7 33.3
11:20 1021 30.15 850 25.1 10.5 51 53 1.5 34.7
11:25 1021 30.15 850 25.1 10.4 50.7 52 1.1 33.9
11:30 1021 30.15 850 25.1 10.9 51.5 50 0.8 33.5
11:35 1021 30.15 850 25.1 11.2 52.2 48 0.7 33.3
11:40 1021 30.15 850 25.1 10.9 51.7 49 0.6 33.1
11:45 1020 30.12 850 25.1 11 51.9 48 0.4 32.7
11:50 1020 30.12 850 25.1 11.8 53.3 47 1 33.9
11:55 1020 30.12 850 25.1 11.2 52.1 48 0.7 33.2
12:00 1020 30.12 849 25.07 11.3 52.3 46 0.2 32.3
12:05 1020 30.12 849 25.07 11.9 53.3 45 0.5 32.9
12:10 1020 30.12 849 25.07 12.1 53.7 46 0.8 33.5
12:15 1020 30.12 849 25.07 12.2 53.9 48 1.5 34.7
12:20 1020 30.12 849 25.07 11.5 52.8 47 0.7 33.2
12:25 1020 30.12 849 25.07 11.9 53.5 44 0.2 32.4
12:30 1020 30.12 849 25.07 12.3 54.1 44 0.6 33.1
12:35 1020 30.12 849 25.07 12.1 53.8 44 0.2 32.3
12:40 1020 30.12 849 25.07 12.2 53.9 44 0.5 32.9
12:45 1020 30.12 849 25.07 12.5 54.4 42 -0.1 31.8
12:50 1020 30.12 849 25.07 13.4 56.1 39 -0.2 31.7
12:55 1020 30.12 849 25.07 13.1 55.7 42 0.6 33.1
13:00 1020 30.12 849 25.07 12.7 54.9 42 0.3 32.6
13:05 1020 30.12 849 25.07 12.5 54.6 43 0.3 32.5
13:10 1020 30.12 849 25.07 13 55.3 40 -0.2 31.6
13:15 1020 30.12 849 25.07 13 55.4 41 0.2 32.4
13:20 1020 30.12 849 25.07 12.9 55.2 39 -0.6 30.9
13:25 1020 30.12 849 25.07 13.1 55.7 39 -0.4 31.2
13:30 1020 30.12 849 25.07 13.2 55.8 39 -0.2 31.6
13:35 1020 30.12 849 25.07 13.4 56.1 39 -0.3 31.4
13:40 1020 30.12 849 25.07 13.4 56.2 39 -0.2 31.6
13:45 1020 30.12 849 25.07 13.6 56.6 38 -0.5 31.2
13:50 1019 30.09 849 25.07 13.7 56.7 40 0.6 33.1
13:55 1019 30.09 849 25.07 12.8 55 44 0.8 33.4
14:00 1019 30.09 849 25.07 12.7 54.8 41 -0.1 31.9
14:05 1019 30.09 849 25.07 13 55.3 41 0 32
14:10 1019 30.09 849 25.07 12.9 55.2 42 0.5 32.9
14:15 1019 30.09 848 25.04 12.6 54.7 42 0.1 32.2
14:20 1019 30.09 848 25.04 13.1 55.5 40 -0.1 31.8
14:25 1019 30.09 848 25.04 13.9 57 37 -0.3 31.4
14:30 1019 30.09 848 25.04 14.7 58.4 36 -0.2 31.6
14:35 1019 30.09 848 25.04 13.9 57.1 39 0.2 32.3
14:40 1019 30.09 848 25.04 14.2 57.5 36 -0.8 30.6
14:45 1019 30.09 848 25.04 14.5 58.1 35 -0.5 31.1
14:50 1019 30.09 848 25.04 14.2 57.5 36 -0.7 30.7
14:55 1019 30.09 848 25.04 14.8 58.6 34 -1 30.2
15:00 1019 30.09 848 25.04 14.4 57.9 38 0.2 32.4
15:05 1019 30.09 848 25.04 14.3 57.7 34 -1.2 29.9
15:10 1019 30.09 848 25.04 15 59 35 -0.2 31.6
15:15 1019 30.09 848 25.04 14.1 57.3 39 0.5 32.8
15:20 1019 30.09 848 25.04 13.1 55.6 39 -0.5 31
15:25 1019 30.09 848 25.04 13.6 56.6 38 -0.2 31.7
15:30 1019 30.09 848 25.04 13.2 55.7 38 -0.9 30.3
15:35 1019 30.09 848 25.04 14.1 57.5 36 -0.7 30.7
15:40 1018 30.06 848 25.04 14.1 57.3 35 -1 30.2
15:45 1018 30.06 848 25.04 14.4 58 37 -0.1 31.8
15:50 1018 30.06 848 25.04 13.8 56.8 37 -0.6 30.9
15:55 1018 30.06 847 25.01 14.2 57.6 35 -1.1 30
16:00 1018 30.06 847 25.01 14.4 58 38 0.2 32.4
16:05 1018 30.06 847 25.01 14.1 57.3 36 -0.9 30.4
16:10 1018 30.06 847 25.01 14.3 57.8 36 -0.6 30.9
16:15 1018 30.06 847 25.01 13.9 57 36 -0.7 30.8
16:20 1018 30.06 847 25.01 14.5 58 35 -0.8 30.5
16:25 1018 30.06 847 25.01 14.9 58.8 34 -0.6 31
16:30 1018 30.06 847 25.01 15 58.9 34 -0.9 30.5
16:35 1018 30.06 847 25.01 14.8 58.7 34 -0.8 30.6
16:40 1018 30.06 847 25.01 14.4 57.8 38 0.3 32.5
16:45 1018 30.06 847 25.01 12.9 55.2 40 -0.4 31.3
16:50 1018 30.06 847 25.01 13.1 55.6 38 -0.9 30.3
16:55 1018 30.06 847 25.01 13.1 55.6 39 -0.4 31.2
17:00 1018 30.06 847 25.01 12.8 55.1 39 -0.8 30.6
17:05 1018 30.06 847 25.01 13 55.4 39 -0.6 30.9
17:10 1018 30.06 847 25.01 12.7 54.9 40 -0.6 30.9
17:15 1018 30.06 847 25.01 12.8 55.1 40 -0.5 31.1
17:20 1018 30.06 847 25.01 12.4 54.3 40 -0.8 30.5
17:25 1018 30.06 847 25.01 12.3 54.2 41 -0.7 30.8
17:30 1018 30.06 847 25.01 12.5 54.5 40 -0.7 30.7
17:35 1018 30.06 847 25.01 12.8 55 39 -0.8 30.6
17:40 1018 30.06 847 25.01 12.9 55.1 38 -0.9 30.4
17:45 1018 30.06 847 25.01 12.2 54 40 -0.8 30.6
17:50 1018 30.06 847 25.01 12.1 53.8 40 -1.1 30
17:55 1018 30.06 847 25.01 12.1 53.7 41 -0.8 30.5
18:00 1018 30.06 847 25.01 12 53.5 41 -1 30.2
18:05 1018 30.06 847 25.01 11.9 53.3 41 -1 30.2
18:10 1018 30.06 847 25.01 11.8 53.2 41 -1 30.2
18:15 1018 30.06 847 25.01 11.8 53.2 41 -0.8 30.5
18:20 1018 30.06 847 25.01 11.8 53.2 41 -1.1 30
18:25 1018 30.06 847 25.01 11.7 53.1 41 -1 30.3
18:30 1018 30.06 847 25.01 11.6 53 42 -0.7 30.7
18:35 1018 30.06 847 25.01 11.6 52.8 42 -0.8 30.5
18:40 1018 30.06 847 25.01 11.5 52.6 43 -0.7 30.7
18:45 1018 30.06 847 25.01 11.3 52.4 42 -0.9 30.3
18:50 1018 30.06 847 25.01 11.3 52.3 43 -0.7 30.8
18:55 1018 30.06 847 25.01 11.3 52.4 43 -0.7 30.8
19:00 1017 30.03 847 25.01 11.3 52.4 44 -0.3 31.4
19:05 1017 30.03 847 25.01 11.2 52.2 44 -0.4 31.2
19:10 1017 30.03 847 25.01 11.2 52.2 42 -1.1 30
19:15 1017 30.03 847 25.01 11.1 52 43 -0.8 30.5
19:20 1017 30.03 847 25.01 11 51.9 50 1.1 33.9
19:25 1017 30.03 847 25.01 10.5 50.9 54 1.7 35.1
19:30 1017 30.03 847 25.01 9.8 49.7 55 1.3 34.4
19:35 1017 30.03 847 25.01 9.5 49.1 58 1.7 35
19:40 1017 30.03 846 24.98 9.3 48.7 58 1.5 34.6
19:45 1017 30.03 846 24.98 9.2 48.6 59 1.8 35.2
19:50 1017 30.03 846 24.98 8.9 48.1 62 2 35.7
19:55 1017 30.03 846 24.98 8.8 47.8 63 2.2 36
20:00 1017 30.03 846 24.98 8.4 47.2 65 2.2 36
20:05 1017 30.03 846 24.98 8.3 46.9 65 2.1 35.9
20:10 1017 30.03 846 24.98 8.1 46.5 65 2 35.6
20:15 1017 30.03 846 24.98 8 46.4 64 1.6 34.9
20:20 1017 30.03 846 24.98 8 46.5 64 1.7 35
20:25 1017 30.03 846 24.98 8.1 46.5 64 1.6 34.9
20:30 1017 30.03 846 24.98 8.1 46.6 63 1.6 34.9
20:35 1017 30.03 846 24.98 8.1 46.5 64 1.7 35
20:40 1017 30.03 846 24.98 8 46.5 65 1.9 35.5
20:45 1017 30.03 846 24.98 8 46.4 65 1.9 35.5
20:50 1017 30.03 846 24.98 7.9 46.3 65 1.9 35.4
20:55 1017 30.03 846 24.98 8 46.4 64 1.5 34.7
21:00 1017 30.03 846 24.98 8.1 46.6 63 1.6 34.9
21:05 1017 30.03 846 24.98 8 46.5 63 1.4 34.6
21:10 1017 30.03 846 24.98 8.2 46.8 63 1.5 34.7
21:15 1017 30.03 846 24.98 8.1 46.6 64 1.7 35.1
21:20 1017 30.03 846 24.98 7.8 46.1 65 1.7 35.1
21:25 1017 30.03 846 24.98 7.6 45.7 65 1.5 34.6
21:30 1017 30.03 846 24.98 7.4 45.3 63 0.9 33.6
21:35 1017 30.03 846 24.98 7.3 45.2 63 0.8 33.4
21:40 1017 30.03 846 24.98 7.3 45.1 62 0.6 33.1
21:45 1017 30.03 846 24.98 7.3 45.1 62 0.4 32.7
21:50 1017 30.03 846 24.98 7.4 45.3 62 0.5 32.9
21:55 1017 30.03 846 24.98 7.3 45.1 62 0.5 32.9
22:00 1017 30.03 846 24.98 7.1 44.9 65 1 33.8
22:05 1017 30.03 846 24.98 6.8 44.2 67 1.1 34
22:10 1017 30.03 846 24.98 6.6 43.8 67 0.9 33.6
22:15 1017 30.03 846 24.98 6.4 43.5 68 0.9 33.7
22:20 1017 30.03 846 24.98 6.3 43.4 68 0.8 33.5
22:25 1017 30.03 846 24.98 6.5 43.7 66 0.6 33.1
22:30 1017 30.03 846 24.98 6.7 44.1 65 0.6 33.1
22:35 1017 30.03 846 24.98 6.8 44.2 65 0.7 33.3
22:40 1017 30.03 846 24.98 6.6 44 66 0.7 33.2
22:45 1016 30 846 24.98 6.6 43.9 65 0.5 33
22:50 1016 30 846 24.98 6.5 43.7 64 0.3 32.5
22:55 1016 30 846 24.98 6.6 43.9 64 0.2 32.4
23:00 1016 30 846 24.98 6.6 43.8 63 0.1 32.2
23:05 1016 30 846 24.98 6.5 43.7 64 0.1 32.2
23:10 1016 30 846 24.98 6.5 43.6 63 -0 32
23:15 1016 30 846 24.98 6.6 44 63 0 32
23:20 1016 30 846 24.98 6.7 44 62 -0.1 31.8
23:25 1016 30 846 24.98 6.6 43.9 62 -0 31.9
23:30 1016 30 846 24.98 6.4 43.5 63 -0.2 31.6
23:35 1016 30 846 24.98 6.5 43.7 60 -0.7 30.8
23:40 1016 30 846 24.98 6.9 44.4 59 -0.6 30.8
23:45 1016 30 846 24.98 7 44.7 59 -0.5 31.1
23:50 1016 30 846 24.98 7.1 44.7 58 -0.5 31
23:55 1016 30 845 24.95 6.9 44.5 59 -0.5 31.1
24:00 1016 30 845 24.95 6.8 44.2 60 -0.5 31.1